createdAt,value
2023-05-19T00:00:15.640Z,89.38
2023-05-19T00:02:44.119Z,89.84
2023-05-19T00:05:13.085Z,89.94
2023-05-19T00:07:40.117Z,89.44
2023-05-19T00:10:07.482Z,89.78
2023-05-19T00:12:34.865Z,89.51
2023-05-19T00:15:01.655Z,89.24
2023-05-19T00:17:31.322Z,89.94
2023-05-19T00:19:58.070Z,89.33
2023-05-19T00:22:28.123Z,90.04
2023-05-19T00:24:55.134Z,88.85
2023-05-19T00:27:21.877Z,88.05
2023-05-19T00:29:48.472Z,89.01
2023-05-19T00:32:15.995Z,90.54
2023-05-19T00:34:45.478Z,91.20
2023-05-19T00:37:12.077Z,90.43
2023-05-19T00:39:38.689Z,89.90
2023-05-19T00:42:07.725Z,89.90
2023-05-19T00:44:34.510Z,88.76
2023-05-19T00:47:01.452Z,89.11
2023-05-19T00:49:30.438Z,89.74
2023-05-19T00:51:57.844Z,89.35
2023-05-19T00:54:27.401Z,88.83
2023-05-19T00:56:59.189Z,88.89
2023-05-19T00:59:28.505Z,88.22
2023-05-19T01:01:57.802Z,88.70
2023-05-19T01:04:27.917Z,88.49
2023-05-19T01:06:56.938Z,88.25
2023-05-19T01:09:25.941Z,89.17
2023-05-19T01:11:57.285Z,89.19
2023-05-19T01:14:24.018Z,89.55
2023-05-19T01:16:55.127Z,89.58
2023-05-19T01:19:27.914Z,90.56
2023-05-19T01:22:03.635Z,89.99
2023-05-19T01:24:47.572Z,88.74
2023-05-19T01:27:32.861Z,89.53
2023-05-19T01:30:18.366Z,89.73
2023-05-19T01:32:46.966Z,89.35
2023-05-19T01:35:21.862Z,90.30
2023-05-19T01:37:50.627Z,90.21
2023-05-19T01:40:21.633Z,89.53
2023-05-19T01:42:49.447Z,88.80
2023-05-19T01:45:16.708Z,88.27
2023-05-19T01:47:46.700Z,88.87
2023-05-19T01:50:16.070Z,88.82
2023-05-19T01:52:42.766Z,88.90
2023-05-19T01:55:09.936Z,89.27
2023-05-19T01:58:01.388Z,89.07
2023-05-19T02:00:43.290Z,88.59
2023-05-19T02:03:40.562Z,88.99
2023-05-19T02:06:16.186Z,88.10
2023-05-19T02:09:07.929Z,88.24
2023-05-19T02:11:40.346Z,88.26
2023-05-19T02:14:18.325Z,89.20
2023-05-19T02:16:50.352Z,89.64
2023-05-19T02:19:30.423Z,90.06
2023-05-19T02:21:57.101Z,89.36
2023-05-19T02:24:24.011Z,89.88
2023-05-19T02:26:53.973Z,90.37
2023-05-19T02:29:25.867Z,89.83
2023-05-19T02:31:55.337Z,89.45
2023-05-19T02:34:22.186Z,90.34
2023-05-19T02:36:53.836Z,90.45
2023-05-19T02:39:23.218Z,91.79
2023-05-19T02:41:52.081Z,93.87
2023-05-19T02:44:18.728Z,94.89
2023-05-19T02:46:52.719Z,93.58
2023-05-19T02:49:22.482Z,93.11
2023-05-19T02:51:49.062Z,92.41
2023-05-19T02:54:20.625Z,91.15
2023-05-19T02:56:47.514Z,91.17
2023-05-19T02:59:16.553Z,90.47
2023-05-19T03:01:47.783Z,90.60
2023-05-19T03:04:20.060Z,89.96
2023-05-19T03:06:49.192Z,89.63
2023-05-19T03:09:18.172Z,90.35
2023-05-19T03:11:47.019Z,90.99
2023-05-19T03:14:15.737Z,91.25
2023-05-19T03:16:42.725Z,90.79
2023-05-19T03:19:12.259Z,90.19
2023-05-19T03:21:39.203Z,89.73
2023-05-19T03:24:06.762Z,90.52
2023-05-19T03:26:38.418Z,91.09
2023-05-19T03:29:05.134Z,90.90
2023-05-19T03:31:31.840Z,91.90
2023-05-19T03:33:58.581Z,93.00
2023-05-19T03:36:26.245Z,94.09
2023-05-19T03:38:55.251Z,93.17
2023-05-19T03:41:22.279Z,93.33
2023-05-19T03:43:49.916Z,91.93
2023-05-19T03:46:18.860Z,92.74
2023-05-19T03:48:47.883Z,92.36
2023-05-19T03:51:14.534Z,92.96
2023-05-19T03:53:41.438Z,91.88
2023-05-19T03:56:08.929Z,91.90
2023-05-19T03:58:37.075Z,91.10
2023-05-19T04:01:03.694Z,90.97
2023-05-19T04:03:32.440Z,92.06
2023-05-19T04:06:06.882Z,93.30
2023-05-19T04:08:33.688Z,92.50
2023-05-19T04:11:04.316Z,92.75
2023-05-19T04:13:36.740Z,91.92
2023-05-19T04:16:06.131Z,90.50
2023-05-19T04:18:32.835Z,90.81
2023-05-19T04:20:59.415Z,90.24
2023-05-19T04:23:26.462Z,90.98
2023-05-19T04:25:57.138Z,90.32
2023-05-19T04:28:24.026Z,91.17
2023-05-19T04:30:50.668Z,89.52
2023-05-19T04:33:17.878Z,88.74
2023-05-19T04:35:44.564Z,89.90
2023-05-19T04:38:12.591Z,91.12
2023-05-19T04:40:42.891Z,93.15
2023-05-19T04:43:14.322Z,92.06
2023-05-19T04:45:46.597Z,91.87
2023-05-19T04:48:13.956Z,90.36
2023-05-19T04:50:43.138Z,90.01
2023-05-19T04:53:12.114Z,88.85
2023-05-19T04:55:40.981Z,87.27
2023-05-19T04:58:10.306Z,88.88
2023-05-19T05:00:39.935Z,89.17
2023-05-19T05:03:09.057Z,89.34
2023-05-19T05:05:35.755Z,88.75
2023-05-19T05:08:07.216Z,87.15
2023-05-19T05:10:34.082Z,86.72
2023-05-19T05:13:02.002Z,87.22
2023-05-19T05:15:29.922Z,86.66
2023-05-19T05:17:56.983Z,86.68
2023-05-19T05:20:26.540Z,86.55
2023-05-19T05:22:53.481Z,86.65
2023-05-19T05:25:20.719Z,86.84
2023-05-19T05:27:47.368Z,87.65
2023-05-19T05:30:14.190Z,87.68
2023-05-19T05:32:43.356Z,85.82
2023-05-19T05:35:15.135Z,85.49
2023-05-19T05:37:41.729Z,86.44
2023-05-19T05:40:11.188Z,87.22
2023-05-19T05:42:37.759Z,85.43
2023-05-19T05:45:04.803Z,83.47
2023-05-19T05:47:34.129Z,84.21
2023-05-19T05:50:04.417Z,84.02
2023-05-19T05:52:35.578Z,85.90
2023-05-19T05:55:02.624Z,85.21
2023-05-19T05:57:31.459Z,87.89
2023-05-19T06:00:00.350Z,83.86
2023-05-19T06:02:31.783Z,83.73
2023-05-19T06:04:58.708Z,84.04
2023-05-19T06:07:25.458Z,81.07
2023-05-19T06:09:54.426Z,81.24
2023-05-19T06:12:22.991Z,82.35
2023-05-19T06:14:49.682Z,84.66
2023-05-19T06:17:18.685Z,83.16
2023-05-19T06:19:50.174Z,83.51
2023-05-19T06:22:21.728Z,84.51
2023-05-19T06:24:48.538Z,83.11
2023-05-19T06:27:15.221Z,82.88
2023-05-19T06:29:41.943Z,83.58
2023-05-19T06:32:08.561Z,82.41
2023-05-19T06:34:38.411Z,82.51
2023-05-19T06:37:04.996Z,83.06
2023-05-19T06:39:34.114Z,82.83
2023-05-19T06:42:00.775Z,81.49
2023-05-19T06:44:27.497Z,80.39
2023-05-19T06:46:58.905Z,79.42
2023-05-19T06:49:30.732Z,80.35
2023-05-19T06:52:02.393Z,83.05
2023-05-19T06:54:29.030Z,83.09
2023-05-19T06:56:55.758Z,80.47
2023-05-19T06:59:27.118Z,80.94
2023-05-19T07:01:53.725Z,76.74
2023-05-19T07:04:23.837Z,79.22
2023-05-19T07:06:50.462Z,79.55
2023-05-19T07:09:17.249Z,77.02
2023-05-19T07:11:44.337Z,77.07
2023-05-19T07:14:15.454Z,77.42
2023-05-19T07:16:44.401Z,78.79
2023-05-19T07:19:11.076Z,77.89
2023-05-19T07:21:40.142Z,76.75
2023-05-19T07:24:07.081Z,80.03
2023-05-19T07:26:33.731Z,74.36
2023-05-19T07:29:00.475Z,74.92
2023-05-19T07:31:27.118Z,74.48
2023-05-19T07:33:56.978Z,73.73
2023-05-19T07:36:23.676Z,74.38
2023-05-19T07:38:55.136Z,74.80
2023-05-19T07:41:21.873Z,73.16
2023-05-19T07:43:50.846Z,75.14
2023-05-19T07:46:17.563Z,73.33
2023-05-19T07:48:44.345Z,74.32
2023-05-19T07:51:12.500Z,74.23
2023-05-19T07:53:39.152Z,75.44
2023-05-19T07:56:08.124Z,75.48
2023-05-19T07:58:34.944Z,72.23
2023-05-19T08:01:01.757Z,70.17
2023-05-19T08:03:30.667Z,72.32
2023-05-19T08:06:02.921Z,69.96
2023-05-19T08:08:29.556Z,68.43
2023-05-19T08:10:58.420Z,70.75
2023-05-19T08:13:26.954Z,68.12
2023-05-19T08:15:59.549Z,67.52
2023-05-19T08:18:28.732Z,69.50
2023-05-19T08:20:56.167Z,67.92
2023-05-19T08:23:22.839Z,66.92
2023-05-19T08:25:52.347Z,68.38
2023-05-19T08:28:18.959Z,67.54
2023-05-19T08:30:47.933Z,68.60
2023-05-19T08:33:17.523Z,69.65
2023-05-19T08:35:46.809Z,69.50
2023-05-19T08:38:13.578Z,72.25
2023-05-19T08:40:46.312Z,71.88
2023-05-19T08:43:13.164Z,71.06
2023-05-19T08:45:43.592Z,70.13
2023-05-19T08:48:13.103Z,71.18
2023-05-19T08:50:44.228Z,68.58
2023-05-19T08:53:32.556Z,67.86
2023-05-19T08:56:31.404Z,70.66
2023-05-19T08:59:00.506Z,69.66
2023-05-19T09:01:28.926Z,70.07
2023-05-19T09:03:58.607Z,68.82
2023-05-19T09:06:26.488Z,69.82
2023-05-19T09:08:57.962Z,66.93
2023-05-19T09:11:27.571Z,67.88
2023-05-19T09:13:56.612Z,67.50
2023-05-19T09:16:23.376Z,68.36
2023-05-19T09:19:01.412Z,64.58
2023-05-19T09:21:31.279Z,63.06
2023-05-19T09:23:59.280Z,64.31
2023-05-19T09:26:37.384Z,63.48
2023-05-19T09:29:17.063Z,64.61
2023-05-19T09:31:54.668Z,64.45
2023-05-19T09:34:25.060Z,64.86
2023-05-19T09:36:54.264Z,67.81
2023-05-19T09:39:23.232Z,65.39
2023-05-19T09:41:58.662Z,64.39
2023-05-19T09:44:29.817Z,64.26
2023-05-19T09:47:00.132Z,63.70
2023-05-19T09:49:32.846Z,67.02
2023-05-19T09:52:03.916Z,64.34
2023-05-19T09:54:32.517Z,65.73
2023-05-19T09:57:03.599Z,64.15
2023-05-19T09:59:33.464Z,64.94
2023-05-19T10:02:01.593Z,65.23
2023-05-19T10:04:30.144Z,63.78
2023-05-19T10:06:59.792Z,63.02
2023-05-19T10:09:30.615Z,64.37
2023-05-19T10:11:59.805Z,63.50
2023-05-19T10:14:31.224Z,68.90
2023-05-19T10:17:00.330Z,64.26
2023-05-19T10:19:28.910Z,62.46
2023-05-19T10:21:56.309Z,60.80
2023-05-19T10:24:23.050Z,61.37
2023-05-19T10:27:03.533Z,61.79
2023-05-19T10:29:33.473Z,59.96
2023-05-19T10:32:09.520Z,59.33
2023-05-19T10:35:16.252Z,59.82
2023-05-19T10:38:05.052Z,60.55
2023-05-19T10:40:39.039Z,57.58
2023-05-19T10:43:18.622Z,58.74
2023-05-19T10:45:51.672Z,64.94
2023-05-19T10:48:23.974Z,61.49
2023-05-19T10:50:57.158Z,58.40
2023-05-19T10:53:37.241Z,57.28
2023-05-19T10:56:04.504Z,59.34
2023-05-19T10:58:38.336Z,59.66
2023-05-19T11:01:11.683Z,57.08
2023-05-19T11:04:09.195Z,59.56
2023-05-19T11:06:36.451Z,59.11
2023-05-19T11:09:34.153Z,57.40
2023-05-19T11:12:06.958Z,55.73
2023-05-19T11:14:40.212Z,56.92
2023-05-19T11:17:18.129Z,56.39
2023-05-19T11:20:03.858Z,55.44
2023-05-19T11:22:30.592Z,53.66
2023-05-19T11:24:59.940Z,55.06
2023-05-19T11:27:33.307Z,54.92
2023-05-19T11:30:20.025Z,52.46
2023-05-19T11:32:49.728Z,57.64
2023-05-19T11:35:19.120Z,53.51
2023-05-19T11:37:50.561Z,53.76
2023-05-19T11:40:18.059Z,52.67
2023-05-19T11:42:45.640Z,55.32
2023-05-19T11:45:12.310Z,55.93
2023-05-19T11:47:59.727Z,56.17
2023-05-19T11:50:31.450Z,55.00
2023-05-19T11:53:00.531Z,56.49
2023-05-19T11:55:27.965Z,54.95
2023-05-19T11:58:05.203Z,56.46
2023-05-19T12:00:39.567Z,53.63
2023-05-19T12:03:07.514Z,51.51
2023-05-19T12:05:43.650Z,53.04
2023-05-19T12:08:13.444Z,54.01
2023-05-19T12:10:43.363Z,54.06
2023-05-19T12:13:12.745Z,53.85
2023-05-19T12:15:39.626Z,52.57
2023-05-19T12:18:06.791Z,51.45
2023-05-19T12:20:37.388Z,52.22
2023-05-19T12:23:09.306Z,49.93
2023-05-19T12:25:36.461Z,50.18
2023-05-19T12:28:08.080Z,49.75
2023-05-19T12:30:37.356Z,50.64
2023-05-19T12:33:04.546Z,51.71
2023-05-19T12:35:34.302Z,51.80
2023-05-19T12:38:04.998Z,49.79
2023-05-19T12:40:33.400Z,49.35
2023-05-19T12:43:02.467Z,48.46
2023-05-19T12:45:33.734Z,48.34
2023-05-19T12:48:04.339Z,50.79
2023-05-19T12:50:34.383Z,50.18
2023-05-19T12:53:03.814Z,47.85
2023-05-19T12:55:30.564Z,48.56
2023-05-19T12:57:59.481Z,51.60
2023-05-19T13:00:28.982Z,50.33
2023-05-19T13:03:05.226Z,49.84
2023-05-19T13:05:40.400Z,51.28
2023-05-19T13:08:08.977Z,50.22
2023-05-19T13:10:38.536Z,52.16
2023-05-19T13:13:05.919Z,51.48
2023-05-19T13:15:35.555Z,50.76
2023-05-19T13:18:04.352Z,49.61
2023-05-19T13:20:31.198Z,49.97
2023-05-19T13:23:00.417Z,51.28
2023-05-19T13:25:27.821Z,51.98
2023-05-19T13:27:59.336Z,50.78
2023-05-19T13:30:28.491Z,52.09
2023-05-19T13:32:56.419Z,51.21
2023-05-19T13:35:26.559Z,49.52
2023-05-19T13:37:55.418Z,50.36
2023-05-19T13:40:28.201Z,49.43
2023-05-19T13:42:59.838Z,49.55
2023-05-19T13:45:31.647Z,48.05
2023-05-19T13:48:00.996Z,48.35
2023-05-19T13:50:29.858Z,50.95
2023-05-19T13:52:58.770Z,48.00
2023-05-19T13:55:29.005Z,49.10
2023-05-19T13:57:58.180Z,49.89
2023-05-19T14:00:24.969Z,50.57
2023-05-19T14:02:51.636Z,50.64
2023-05-19T14:05:20.755Z,51.59
2023-05-19T14:08:43.439Z,51.81
2023-05-19T14:11:17.164Z,52.12
2023-05-19T14:14:03.558Z,52.56
2023-05-19T14:16:30.536Z,50.36
2023-05-19T14:18:57.288Z,49.56
2023-05-19T14:21:26.138Z,48.24
2023-05-19T14:23:55.218Z,49.91
2023-05-19T14:26:21.990Z,47.86
2023-05-19T14:28:51.449Z,47.80
2023-05-19T14:31:23.446Z,47.54
2023-05-19T14:33:54.231Z,46.25
2023-05-19T14:36:21.160Z,44.82
2023-05-19T14:45:15.386Z,46.09
2023-05-19T14:47:42.077Z,48.30
2023-05-19T14:50:08.904Z,45.02
2023-05-19T14:52:35.607Z,46.02
2023-05-19T14:55:02.457Z,45.08
2023-05-19T14:57:32.160Z,44.63
2023-05-19T14:59:58.729Z,47.27
2023-05-19T15:02:26.889Z,46.81
2023-05-19T15:04:57.261Z,48.25
2023-05-19T15:07:32.654Z,47.90
2023-05-19T15:13:42.093Z,46.36
2023-05-19T15:16:17.281Z,44.25
2023-05-19T15:18:51.541Z,45.87
2023-05-19T15:21:20.494Z,45.16
2023-05-19T15:23:49.351Z,47.39
2023-05-19T15:26:16.119Z,47.04
2023-05-19T15:28:43.127Z,46.30
2023-05-19T15:31:11.985Z,45.27
2023-05-19T15:33:41.190Z,44.42
2023-05-19T15:36:16.710Z,43.49
2023-05-19T15:38:52.988Z,44.66
2023-05-19T15:41:22.090Z,42.69
2023-05-19T15:43:51.278Z,39.82
2023-05-19T15:46:20.178Z,40.71
2023-05-19T15:48:49.220Z,39.49
2023-05-19T15:51:16.136Z,41.00
2023-05-19T15:53:47.667Z,41.20
2023-05-19T15:56:14.511Z,40.22
2023-05-19T15:58:41.298Z,43.80
2023-05-19T16:01:08.574Z,43.95
2023-05-19T16:03:37.707Z,44.02
2023-05-19T16:06:04.664Z,45.69
2023-05-19T16:08:31.364Z,44.78
2023-05-19T16:10:58.086Z,44.67
2023-05-19T16:13:26.943Z,44.47
2023-05-19T16:15:54.011Z,45.21
2023-05-19T16:18:23.791Z,44.91
2023-05-19T16:20:56.064Z,45.75
2023-05-19T16:23:24.630Z,45.70
2023-05-19T16:25:51.252Z,45.96
2023-05-19T16:28:22.448Z,50.06
2023-05-19T16:30:50.454Z,49.60
2023-05-19T16:33:17.145Z,52.25
2023-05-19T16:35:46.270Z,53.22
2023-05-19T16:38:15.192Z,51.81
2023-05-19T16:40:44.790Z,53.06
2023-05-19T16:43:14.184Z,52.17
2023-05-19T16:45:50.617Z,52.94
2023-05-19T16:48:17.451Z,53.79
2023-05-19T16:50:44.090Z,54.11
2023-05-19T16:53:15.421Z,53.89
2023-05-19T16:55:42.002Z,52.47
2023-05-19T16:58:11.907Z,53.42
2023-05-19T17:00:38.706Z,54.01
2023-05-19T17:03:05.584Z,52.83
2023-05-19T17:05:32.224Z,54.75
2023-05-19T17:07:58.906Z,54.54
2023-05-19T17:10:27.800Z,53.92
2023-05-19T17:12:59.290Z,55.51
2023-05-19T17:15:28.088Z,56.44
2023-05-19T17:17:54.795Z,55.88
2023-05-19T17:20:21.432Z,56.41
2023-05-19T17:22:50.577Z,55.98
2023-05-19T17:25:19.989Z,55.95
2023-05-19T17:27:46.569Z,55.94
2023-05-19T17:30:16.342Z,55.72
2023-05-19T17:32:45.302Z,56.41
2023-05-19T17:35:11.970Z,55.92
2023-05-19T17:37:38.549Z,55.84
2023-05-19T17:40:05.942Z,58.53
2023-05-19T17:42:36.298Z,58.79
2023-05-19T17:45:08.722Z,58.17
2023-05-19T17:47:35.334Z,58.65
2023-05-19T17:50:01.927Z,59.35
2023-05-19T17:52:28.934Z,59.75
2023-05-19T17:54:55.858Z,59.02
2023-05-19T17:57:30.577Z,61.14
2023-05-19T17:59:57.454Z,61.23
2023-05-19T18:02:24.294Z,60.84
2023-05-19T18:04:57.084Z,61.46
2023-05-19T18:07:27.655Z,62.25
2023-05-19T18:09:56.103Z,62.94
2023-05-19T18:12:22.825Z,64.86
2023-05-19T18:14:50.683Z,62.95
2023-05-19T18:17:19.805Z,62.86
2023-05-19T18:19:49.489Z,62.84
2023-05-19T18:22:21.284Z,62.27
2023-05-19T18:24:47.970Z,61.53
2023-05-19T18:27:14.534Z,62.37
2023-05-19T18:29:44.519Z,62.83
2023-05-19T18:32:17.671Z,61.76
2023-05-19T18:34:44.389Z,64.50
2023-05-19T18:37:13.619Z,64.95
2023-05-19T18:39:42.553Z,65.73
2023-05-19T18:42:09.192Z,65.54
2023-05-19T18:44:46.749Z,65.45
2023-05-19T18:47:14.192Z,63.50
2023-05-19T18:49:43.313Z,63.06
2023-05-19T18:52:09.957Z,64.33
2023-05-19T18:54:38.961Z,64.06
2023-05-19T18:57:05.845Z,64.12
2023-05-19T18:59:32.767Z,64.63
2023-05-19T19:02:01.926Z,65.10
2023-05-19T19:04:28.673Z,64.89
2023-05-19T19:06:55.253Z,65.51
2023-05-19T19:09:26.862Z,65.02
2023-05-19T19:11:57.074Z,66.04
2023-05-19T19:14:29.023Z,66.24
2023-05-19T19:16:56.173Z,66.71
2023-05-19T19:19:23.934Z,67.00
2023-05-19T19:21:50.687Z,66.72
2023-05-19T19:24:19.670Z,66.22
2023-05-19T19:26:46.300Z,67.45
2023-05-19T19:29:18.452Z,67.48
2023-05-19T19:31:47.507Z,67.54
2023-05-19T19:34:14.068Z,67.36
2023-05-19T19:36:40.994Z,67.43
2023-05-19T19:39:09.901Z,67.58
2023-05-19T19:41:41.220Z,68.34
2023-05-19T19:44:10.402Z,67.98
2023-05-19T19:46:42.250Z,68.85
2023-05-19T19:49:11.188Z,68.68
2023-05-19T19:51:37.686Z,68.72
2023-05-19T19:54:06.694Z,70.05
2023-05-19T19:56:33.754Z,69.17
2023-05-19T19:59:03.364Z,69.37
2023-05-19T20:01:33.623Z,70.78
2023-05-19T20:04:00.759Z,70.95
2023-05-19T20:06:27.410Z,71.49
2023-05-19T20:08:59.223Z,71.08
2023-05-19T20:11:30.724Z,70.65
2023-05-19T20:13:59.767Z,70.63
2023-05-19T20:16:28.834Z,72.76
2023-05-19T20:18:55.694Z,71.44
2023-05-19T20:21:24.819Z,70.09
2023-05-19T20:23:53.891Z,72.57
2023-05-19T20:26:25.360Z,71.92
2023-05-19T20:29:07.139Z,70.21
2023-05-19T20:31:38.523Z,71.74
2023-05-19T20:34:07.533Z,71.78
2023-05-19T20:36:46.028Z,72.69
2023-05-19T20:39:12.747Z,71.86
2023-05-19T20:41:39.409Z,72.60
2023-05-19T20:44:06.573Z,73.85
2023-05-19T20:46:33.203Z,74.26
2023-05-19T20:49:03.410Z,74.69
2023-05-19T20:51:30.069Z,74.71
2023-05-19T20:53:59.954Z,74.36
2023-05-19T20:56:28.719Z,74.91
2023-05-19T20:58:55.438Z,74.30
2023-05-19T21:01:22.074Z,73.47
2023-05-19T21:03:51.283Z,73.96
2023-05-19T21:06:17.979Z,75.32
2023-05-19T21:08:46.895Z,74.74
2023-05-19T21:11:13.576Z,74.32
2023-05-19T21:13:40.649Z,73.84
2023-05-19T21:16:07.964Z,73.99
2023-05-19T21:18:36.937Z,73.37
2023-05-19T21:21:04.205Z,73.67
2023-05-19T21:23:32.930Z,73.26
2023-05-19T21:26:02.160Z,74.01
2023-05-19T21:28:30.971Z,74.41
2023-05-19T21:30:57.568Z,74.07
2023-05-19T21:33:24.261Z,74.01
2023-05-19T21:35:51.014Z,73.82
2023-05-19T21:38:23.948Z,73.67
2023-05-19T21:40:55.973Z,73.83
2023-05-19T21:43:30.204Z,74.06
2023-05-19T21:45:56.916Z,73.31
2023-05-19T21:48:28.302Z,73.80
2023-05-19T21:50:57.787Z,73.57
2023-05-19T21:53:24.961Z,73.83
2023-05-19T21:55:54.247Z,73.82
2023-05-19T21:58:26.112Z,74.22
2023-05-19T22:00:54.545Z,74.38
2023-05-19T22:03:21.856Z,74.73
2023-05-19T22:05:52.427Z,74.03
2023-05-19T22:08:26.063Z,73.69
2023-05-19T22:10:55.909Z,73.62
2023-05-19T22:13:22.470Z,73.76
2023-05-19T22:15:49.175Z,74.33
2023-05-19T22:18:15.815Z,73.71
2023-05-19T22:20:44.920Z,73.13
2023-05-19T22:23:23.402Z,73.18
2023-05-19T22:25:55.340Z,73.18
2023-05-19T22:28:21.973Z,73.75
2023-05-19T22:30:53.540Z,73.02
2023-05-19T22:33:22.938Z,73.40
2023-05-19T22:35:52.574Z,73.75
2023-05-19T22:38:19.140Z,73.26
2023-05-19T22:40:49.654Z,73.11
2023-05-19T22:43:18.511Z,73.92
2023-05-19T22:45:45.092Z,73.86
2023-05-19T22:48:11.860Z,74.53
2023-05-19T22:50:38.567Z,74.21
2023-05-19T22:53:07.361Z,74.40
2023-05-19T22:55:36.621Z,74.02
2023-05-19T22:58:03.353Z,74.15
2023-05-19T23:00:32.838Z,74.42
2023-05-19T23:02:59.479Z,73.71
2023-05-19T23:05:28.459Z,73.98
2023-05-19T23:07:55.202Z,74.32
2023-05-19T23:10:24.185Z,74.56
2023-05-19T23:12:53.090Z,74.38
2023-05-19T23:15:20.196Z,74.94
2023-05-19T23:17:51.569Z,75.20
2023-05-19T23:20:20.625Z,75.68
2023-05-19T23:22:53.644Z,76.35
2023-05-19T23:25:22.633Z,75.93
2023-05-19T23:27:49.194Z,75.90
2023-05-19T23:30:15.979Z,75.33
2023-05-19T23:32:44.917Z,75.75
2023-05-19T23:35:18.564Z,75.40
2023-05-19T23:37:48.440Z,75.69
2023-05-19T23:40:18.385Z,76.35
2023-05-19T23:42:47.298Z,75.92
2023-05-19T23:45:13.821Z,76.15
2023-05-19T23:47:40.552Z,76.65
2023-05-19T23:50:07.367Z,77.09
2023-05-19T23:52:33.939Z,78.00
2023-05-19T23:55:00.605Z,78.45
2023-05-19T23:57:29.804Z,78.76
2023-05-19T23:59:56.787Z,78.80
